Kikinda, Srbija

07:08 AM CEST on oktober 23, 2014 (GMT +0200)
Giarmata | Change Station
CLOSE
Current Station
Airport
Location: Timisoara,
Višina: 348 ft
Nearby Weather Stations

Viš 348 ft 45.81 °N, 21.33 °E | Updated 8 minutes ago

Light Rain
Rahel dez
45 °F
Feels Like 45 °F
N
0
Veter Spremenljivo Veter od Sever

Danes
High -- | Low -- °F
--% Chance of Precip.
Yesterday
High -- | Low -- °F
Precip. -- v
7:05 AM 5:38 PM
Pojemajoči krajec, 1% visible
Zračni tlak 29.62 v
Vidljivost 3.1 milje
Oblaki Few 1500 ft
Rosišče 45 °F
Vlažnost 100%
Padavine 0.00 v
Snow Depth Not available.
UV 0 out of 12
Pollen Not available.
Air Quality Not available.
Flu Activity Not available.
METAR LRTR 230500Z 00000KT 5000 -RA BR FEW015 07/07 Q1003 R11/29//95

More Conditions Fewer Conditions

Zračni tlak 29.62 v
Vidljivost 3.1 milje
Oblaki Few 1500 ft
Rosišče 45 °F
Vlažnost 100%
Padavine 0.00 v
Snow Depth Not available.
UV 0 out of 12
Pollen Not available.
Air Quality Not available.
Flu Activity Not available.
METAR LRTR 230500Z 00000KT 5000 -RA BR FEW015 07/07 Q1003 R11/29//95

More Conditions Fewer Conditions

10-Day Weather Forecast

Almanac

Astronomija

Oct. 23, 2014 Rise Set
Actual Time 7:05 AM CEST 5:38 PM CEST
Civil Twilight 6:34 AM CEST 6:09 PM CEST
Nautical Twilight 6:00 AM CEST 6:44 PM CEST
Astronomical Twilight 5:25 AM CEST 7:18 PM CEST
Moon 6:25 AM CEST 5:30 PM CEST
Length Of Visible Light 11h 34m
Dolžina dneva
10h 33m
Tomorrow will be 3m 2s shorter.
Pojemajoči krajec, 1% of the Moon is Illuminated
Danes
Pojemajoči krajec
Oct 23
New
Oct 30
Prvo četrtletje
Nov 6
Polna luna (ščip)
Nov 14
Zadnji krajec

Community

WunderPhotos

Upload Photos

1,764,169 photos uploaded!

Nearby

Snow Depth

Not available.

Earthquake Activity

City Distance Mag. Time & Date
No recent earthquake activity has been reported nearby.
Minimum magnitude displayed is 2.5.

Coastal Water Temperatures

Mesto Temperatura
No Stations Reporting

Nearby Weather Stations